createdAt,value
2023-03-17T00:01:15.397Z,-2.39
2023-03-17T00:03:43.002Z,-2.42
2023-03-17T00:06:17.220Z,-2.43
2023-03-17T00:08:44.075Z,-2.43
2023-03-17T00:11:14.287Z,-2.43
2023-03-17T00:13:40.642Z,-2.44
2023-03-17T00:16:12.330Z,-2.44
2023-03-17T00:18:38.760Z,-2.45
2023-03-17T00:21:05.238Z,-2.45
2023-03-17T00:23:31.525Z,-2.46
2023-03-17T00:25:57.754Z,-2.45
2023-03-17T00:28:25.908Z,-2.44
2023-03-17T00:30:55.686Z,-2.45
2023-03-17T00:33:23.491Z,-2.45
2023-03-17T00:35:49.889Z,-2.44
2023-03-17T00:38:17.126Z,-2.44
2023-03-17T00:40:43.867Z,-2.46
2023-03-17T00:43:10.273Z,-2.48
2023-03-17T00:45:37.529Z,-2.50
2023-03-17T00:48:09.782Z,-2.55
2023-03-17T00:50:36.129Z,-2.62
2023-03-17T00:53:02.658Z,-2.67
2023-03-17T00:55:30.164Z,-2.71
2023-03-17T00:57:56.476Z,-2.74
2023-03-17T01:00:28.527Z,-2.78
2023-03-17T01:02:56.171Z,-2.85
2023-03-17T01:05:23.937Z,-2.92
2023-03-17T01:07:52.318Z,-3.00
2023-03-17T01:10:23.264Z,-3.05
2023-03-17T01:12:50.161Z,-3.08
2023-03-17T01:15:16.669Z,-3.09
2023-03-17T01:17:43.401Z,-3.09
2023-03-17T01:20:23.767Z,-3.10
2023-03-17T01:22:50.354Z,-3.11
2023-03-17T01:25:17.420Z,-3.14
2023-03-17T01:27:44.417Z,-3.16
2023-03-17T01:30:13.561Z,-3.20
2023-03-17T01:32:39.840Z,-3.22
2023-03-17T01:35:06.438Z,-3.23
2023-03-17T01:37:32.756Z,-3.24
2023-03-17T01:39:59.040Z,-3.25
2023-03-17T01:42:25.414Z,-3.23
2023-03-17T01:45:05.860Z,-3.21
2023-03-17T01:47:32.306Z,-3.22
2023-03-17T01:50:08.091Z,-3.22
2023-03-17T01:52:36.863Z,-3.23
2023-03-17T01:55:05.295Z,-3.21
2023-03-17T01:57:37.679Z,-3.19
2023-03-17T02:00:09.088Z,-3.18
2023-03-17T02:02:43.427Z,-3.18
2023-03-17T02:05:11.029Z,-3.19
2023-03-17T02:07:37.377Z,-3.18
2023-03-17T02:10:04.684Z,-3.18
2023-03-17T02:12:31.025Z,-3.18
2023-03-17T02:14:57.519Z,-3.20
2023-03-17T02:17:24.915Z,-3.23
2023-03-17T02:19:51.455Z,-3.25
2023-03-17T02:22:18.181Z,-3.27
2023-03-17T02:24:52.159Z,-3.33
2023-03-17T02:27:20.720Z,-3.38
2023-03-17T02:29:47.093Z,-3.40
2023-03-17T02:32:14.822Z,-3.41
2023-03-17T02:34:41.059Z,-3.41
2023-03-17T02:37:08.036Z,-3.40
2023-03-17T02:39:34.362Z,-3.40
2023-03-17T02:42:01.703Z,-3.41
2023-03-17T02:44:28.078Z,-3.44
2023-03-17T02:46:54.463Z,-3.47
2023-03-17T02:49:21.139Z,-3.50
2023-03-17T02:51:47.457Z,-3.53
2023-03-17T02:54:13.892Z,-3.58
2023-03-17T02:56:40.168Z,-3.61
2023-03-17T02:59:06.623Z,-3.63
2023-03-17T03:01:33.020Z,-3.64
2023-03-17T03:03:59.561Z,-3.66
2023-03-17T03:06:26.368Z,-3.67
2023-03-17T03:08:53.108Z,-3.68
2023-03-17T03:11:19.358Z,-3.70
2023-03-17T03:13:45.666Z,-3.71
2023-03-17T03:16:12.013Z,-3.71
2023-03-17T03:18:38.264Z,-3.72
2023-03-17T03:21:04.977Z,-3.73
2023-03-17T03:23:31.487Z,-3.73
2023-03-17T03:25:57.717Z,-3.70
2023-03-17T03:28:24.017Z,-3.69
2023-03-17T03:30:50.634Z,-3.69
2023-03-17T03:33:17.004Z,-3.68
2023-03-17T03:35:43.744Z,-3.68
2023-03-17T03:38:10.515Z,-3.67
2023-03-17T03:40:37.065Z,-3.68
2023-03-17T03:43:19.848Z,-3.68
2023-03-17T03:45:48.619Z,-3.70
2023-03-17T03:48:14.963Z,-3.70
2023-03-17T03:50:41.254Z,-3.69
2023-03-17T03:53:07.644Z,-3.69
2023-03-17T03:55:33.959Z,-3.70
2023-03-17T03:58:00.258Z,-3.71
2023-03-17T04:00:26.637Z,-3.72
2023-03-17T04:02:53.085Z,-3.72
2023-03-17T04:05:19.453Z,-3.74
2023-03-17T04:07:45.820Z,-3.74
2023-03-17T04:10:12.700Z,-3.75
2023-03-17T04:12:39.008Z,-3.76
2023-03-17T04:15:06.576Z,-3.76
2023-03-17T04:17:32.809Z,-3.77
2023-03-17T04:19:59.047Z,-3.78
2023-03-17T04:22:25.436Z,-3.79
2023-03-17T04:24:51.709Z,-3.79
2023-03-17T04:27:18.037Z,-3.80
2023-03-17T04:29:44.470Z,-3.81
2023-03-17T04:32:11.503Z,-3.82
2023-03-17T04:34:37.761Z,-3.82
2023-03-17T04:37:04.155Z,-3.84
2023-03-17T04:39:30.702Z,-3.85
2023-03-17T04:41:57.093Z,-3.88
2023-03-17T04:44:23.501Z,-3.89
2023-03-17T04:46:50.084Z,-3.94
2023-03-17T04:49:16.415Z,-3.97
2023-03-17T04:51:42.882Z,-3.99
2023-03-17T04:54:09.241Z,-4.01
2023-03-17T04:56:35.574Z,-4.01
2023-03-17T04:59:02.288Z,-4.00
2023-03-17T05:01:28.646Z,-3.98
2023-03-17T05:03:54.955Z,-3.95
2023-03-17T05:06:21.382Z,-3.89
2023-03-17T05:08:47.630Z,-3.81
2023-03-17T05:11:13.975Z,-3.71
2023-03-17T05:13:40.303Z,-3.60
2023-03-17T05:16:07.295Z,-3.50
2023-03-17T05:18:33.922Z,-3.38
2023-03-17T05:21:00.268Z,-3.27
2023-03-17T05:23:26.633Z,-3.14
2023-03-17T05:25:53.037Z,-2.99
2023-03-17T05:28:19.560Z,-2.85
2023-03-17T05:30:46.221Z,-2.72
2023-03-17T05:33:13.036Z,-2.59
2023-03-17T05:35:39.453Z,-2.44
2023-03-17T05:38:06.376Z,-2.29
2023-03-17T05:40:33.023Z,-2.14
2023-03-17T05:42:59.524Z,-1.98
2023-03-17T05:45:25.763Z,-1.82
2023-03-17T05:47:52.080Z,-1.67
2023-03-17T05:50:18.479Z,-1.52
2023-03-17T05:52:44.758Z,-1.36
2023-03-17T05:55:11.179Z,-1.21
2023-03-17T05:57:37.503Z,-1.06
2023-03-17T06:00:03.908Z,-0.94
2023-03-17T06:02:31.404Z,-0.85
2023-03-17T06:04:57.924Z,-0.73
2023-03-17T06:07:24.518Z,-0.62
2023-03-17T06:09:50.835Z,-0.50
2023-03-17T06:12:17.093Z,-0.38
2023-03-17T06:14:43.533Z,-0.27
2023-03-17T06:17:09.909Z,-0.17
2023-03-17T06:19:36.301Z,-0.08
2023-03-17T06:22:02.682Z,0.01
2023-03-17T06:24:29.085Z,0.11
2023-03-17T06:26:55.474Z,0.23
2023-03-17T06:29:21.910Z,0.32
2023-03-17T06:31:48.220Z,0.44
2023-03-17T06:34:14.572Z,0.54
2023-03-17T06:36:41.072Z,0.64
2023-03-17T06:39:07.394Z,0.73
2023-03-17T06:41:33.764Z,0.82
2023-03-17T06:44:00.115Z,0.88
2023-03-17T06:46:26.579Z,0.97
2023-03-17T06:48:52.935Z,1.05
2023-03-17T06:51:19.299Z,1.15
2023-03-17T06:53:45.612Z,1.26
2023-03-17T06:56:23.665Z,1.38
2023-03-17T06:58:55.548Z,1.51
2023-03-17T07:01:21.990Z,1.64
2023-03-17T07:03:48.360Z,1.74
2023-03-17T07:06:14.827Z,1.84
2023-03-17T07:08:41.233Z,1.92
2023-03-17T07:11:07.533Z,2.01
2023-03-17T07:13:33.890Z,2.11
2023-03-17T07:16:00.997Z,2.22
2023-03-17T07:18:27.697Z,2.33
2023-03-17T07:20:54.155Z,2.45
2023-03-17T07:23:21.456Z,2.57
2023-03-17T07:25:47.979Z,2.69
2023-03-17T07:28:14.337Z,2.84
2023-03-17T07:30:40.947Z,2.97
2023-03-17T07:33:07.325Z,3.09
2023-03-17T07:35:34.300Z,3.21
2023-03-17T07:38:01.086Z,3.32
2023-03-17T07:40:27.352Z,3.45
2023-03-17T07:42:53.619Z,3.55
2023-03-17T07:45:21.081Z,3.67
2023-03-17T07:47:48.047Z,3.79
2023-03-17T07:50:15.182Z,3.92
2023-03-17T07:52:41.429Z,4.03
2023-03-17T07:55:08.545Z,4.14
2023-03-17T07:57:35.036Z,4.24
2023-03-17T08:00:01.626Z,4.35
2023-03-17T08:02:38.012Z,4.47
2023-03-17T08:05:05.252Z,4.58
2023-03-17T08:07:31.606Z,4.69
2023-03-17T08:09:57.965Z,4.81
2023-03-17T08:12:24.427Z,4.94
2023-03-17T08:14:51.188Z,5.07
2023-03-17T08:17:17.704Z,5.21
2023-03-17T08:19:44.045Z,5.36
2023-03-17T08:22:10.368Z,5.49
2023-03-17T08:24:36.870Z,5.61
2023-03-17T08:27:03.252Z,5.71
2023-03-17T08:29:29.616Z,5.83
2023-03-17T08:31:56.470Z,5.98
2023-03-17T08:34:23.448Z,6.07
2023-03-17T08:36:50.345Z,6.15
2023-03-17T08:39:16.688Z,6.21
2023-03-17T08:41:43.049Z,6.29
2023-03-17T08:44:09.718Z,6.40
2023-03-17T08:46:36.097Z,6.51
2023-03-17T08:49:02.550Z,6.58
2023-03-17T08:51:30.334Z,6.66
2023-03-17T08:53:57.107Z,6.74
2023-03-17T08:56:23.501Z,6.84
2023-03-17T08:58:50.304Z,6.92
2023-03-17T09:01:17.863Z,6.97
2023-03-17T09:03:44.194Z,7.05
2023-03-17T09:06:11.171Z,7.10
2023-03-17T09:08:38.313Z,7.15
2023-03-17T09:11:05.486Z,7.21
2023-03-17T09:13:33.039Z,7.25
2023-03-17T09:15:59.893Z,7.26
2023-03-17T09:18:26.616Z,7.27
2023-03-17T09:20:52.872Z,7.34
2023-03-17T09:23:19.213Z,7.43
2023-03-17T09:25:45.482Z,7.50
2023-03-17T09:28:12.143Z,7.57
2023-03-17T09:30:41.936Z,7.64
2023-03-17T09:33:09.238Z,7.69
2023-03-17T09:35:35.589Z,7.81
2023-03-17T09:38:01.989Z,7.97
2023-03-17T09:40:46.878Z,8.14
2023-03-17T09:43:16.518Z,8.33
2023-03-17T09:45:43.900Z,8.48
2023-03-17T09:48:23.807Z,8.70
2023-03-17T09:50:53.311Z,8.99
2023-03-17T09:53:22.064Z,9.28
2023-03-17T09:55:52.163Z,9.62
2023-03-17T09:58:20.789Z,9.91
2023-03-17T10:00:47.066Z,10.20
2023-03-17T10:03:13.446Z,10.60
2023-03-17T10:05:39.986Z,10.99
2023-03-17T10:08:31.736Z,11.30
2023-03-17T10:11:13.483Z,11.56
2023-03-17T10:13:55.059Z,11.85
2023-03-17T10:16:25.309Z,12.18
2023-03-17T10:18:51.619Z,12.44
2023-03-17T10:21:20.216Z,12.66
2023-03-17T10:23:46.557Z,12.87
2023-03-17T10:26:31.468Z,13.12
2023-03-17T10:28:57.754Z,13.24
2023-03-17T10:31:28.947Z,13.52
2023-03-17T10:33:55.475Z,13.89
2023-03-17T10:36:32.671Z,14.02
2023-03-17T10:38:59.417Z,14.02
2023-03-17T10:41:27.577Z,14.20
2023-03-17T10:43:53.886Z,14.40
2023-03-17T10:46:21.924Z,14.72
2023-03-17T10:49:02.144Z,15.09
2023-03-17T10:51:30.571Z,15.38
2023-03-17T10:53:59.350Z,15.60
2023-03-17T10:56:26.645Z,15.83
2023-03-17T10:58:53.897Z,15.98
2023-03-17T11:01:23.145Z,16.49
2023-03-17T11:03:49.699Z,17.09
2023-03-17T11:06:17.917Z,17.47
2023-03-17T11:08:48.783Z,17.69
2023-03-17T11:11:24.496Z,18.04
2023-03-17T11:13:51.332Z,18.47
2023-03-17T11:16:22.179Z,19.02
2023-03-17T11:18:50.720Z,19.45
2023-03-17T11:21:29.376Z,19.55
2023-03-17T11:24:06.551Z,19.76
2023-03-17T11:26:32.845Z,19.70
2023-03-17T11:28:59.128Z,19.84
2023-03-17T11:31:34.109Z,19.82
2023-03-17T11:34:07.450Z,19.42
2023-03-17T11:36:37.111Z,19.45
2023-03-17T11:39:15.752Z,19.62
2023-03-17T11:41:54.216Z,19.95
2023-03-17T11:44:20.473Z,20.21
2023-03-17T11:47:03.153Z,20.28
2023-03-17T11:49:36.814Z,20.16
2023-03-17T11:52:10.865Z,20.27
2023-03-17T11:54:46.446Z,20.23
2023-03-17T11:57:16.669Z,20.33
2023-03-17T11:59:46.147Z,20.59
2023-03-17T12:02:24.879Z,20.79
2023-03-17T12:04:51.287Z,20.92
2023-03-17T12:07:19.852Z,21.26
2023-03-17T12:10:15.530Z,21.66
2023-03-17T12:12:49.852Z,21.86
2023-03-17T12:15:21.636Z,21.96
2023-03-17T12:17:54.156Z,22.09
2023-03-17T12:20:34.325Z,22.12
2023-03-17T12:23:03.643Z,22.23
2023-03-17T12:25:50.500Z,22.25
2023-03-17T12:28:19.324Z,22.45
2023-03-17T12:30:53.505Z,22.52
2023-03-17T12:33:24.095Z,22.85
2023-03-17T12:35:50.433Z,23.15
2023-03-17T12:38:43.204Z,23.33
2023-03-17T12:41:25.032Z,23.37
2023-03-17T12:44:06.693Z,23.36
2023-03-17T12:46:36.023Z,23.46
2023-03-17T12:49:21.365Z,23.49
2023-03-17T12:51:52.880Z,23.96
2023-03-17T12:54:20.886Z,24.36
2023-03-17T12:56:48.439Z,25.10
2023-03-17T12:59:17.845Z,25.83
2023-03-17T13:01:45.396Z,26.50
2023-03-17T13:04:29.394Z,27.14
2023-03-17T13:06:58.758Z,27.38
2023-03-17T13:09:31.815Z,27.81
2023-03-17T13:11:59.091Z,28.19
2023-03-17T13:14:44.443Z,28.58
2023-03-17T13:17:10.825Z,29.19
2023-03-17T13:19:46.356Z,29.46
2023-03-17T13:22:12.743Z,29.14
2023-03-17T13:24:49.136Z,28.32
2023-03-17T13:27:24.338Z,26.96
2023-03-17T13:29:50.705Z,25.13
2023-03-17T13:32:22.853Z,23.73
2023-03-17T13:35:01.640Z,22.55
2023-03-17T13:37:34.299Z,21.85
2023-03-17T13:40:04.010Z,21.57
2023-03-17T13:42:48.486Z,21.04
2023-03-17T13:45:41.230Z,20.52
2023-03-17T13:48:27.790Z,20.24
2023-03-17T13:50:59.143Z,20.29
2023-03-17T13:53:27.435Z,20.30
2023-03-17T13:56:12.962Z,20.07
2023-03-17T13:58:51.669Z,19.74
2023-03-17T14:01:18.905Z,19.37
2023-03-17T14:03:49.584Z,18.93
2023-03-17T14:06:17.892Z,18.48
2023-03-17T14:08:49.981Z,18.07
2023-03-17T14:11:32.309Z,17.57
2023-03-17T14:14:07.663Z,16.98
2023-03-17T14:16:36.129Z,16.38
2023-03-17T14:19:28.837Z,15.82
2023-03-17T14:22:01.378Z,15.33
2023-03-17T14:24:31.701Z,14.98
2023-03-17T14:27:03.174Z,14.67
2023-03-17T14:29:31.216Z,14.36
2023-03-17T14:32:05.470Z,14.13
2023-03-17T14:34:32.691Z,13.86
2023-03-17T14:37:03.649Z,13.62
2023-03-17T14:39:30.173Z,13.39
2023-03-17T14:41:57.672Z,13.23
2023-03-17T14:44:24.017Z,13.10
2023-03-17T14:46:50.439Z,12.98
2023-03-17T14:49:18.966Z,12.84
2023-03-17T14:51:48.206Z,12.70
2023-03-17T14:54:17.545Z,12.58
2023-03-17T14:56:48.114Z,12.44
2023-03-17T14:59:19.481Z,12.30
2023-03-17T15:01:46.441Z,12.17
2023-03-17T15:04:16.369Z,12.07
2023-03-17T15:07:02.979Z,11.97
2023-03-17T15:09:34.478Z,11.83
2023-03-17T15:12:03.793Z,11.70
2023-03-17T15:14:38.052Z,11.56
2023-03-17T15:17:06.751Z,11.40
2023-03-17T15:19:38.358Z,11.27
2023-03-17T15:22:20.860Z,11.15
2023-03-17T15:25:07.393Z,11.01
2023-03-17T15:27:33.931Z,10.87
2023-03-17T15:30:00.263Z,10.78
2023-03-17T15:32:28.003Z,10.70
2023-03-17T15:34:55.529Z,10.59
2023-03-17T15:37:23.398Z,10.50
2023-03-17T15:39:50.281Z,10.43
2023-03-17T15:42:19.561Z,10.33
2023-03-17T15:44:45.970Z,10.25
2023-03-17T15:47:13.875Z,10.17
2023-03-17T15:49:40.647Z,10.12
2023-03-17T15:52:26.593Z,10.08
2023-03-17T15:54:53.962Z,10.00
2023-03-17T15:57:20.640Z,9.94
2023-03-17T15:59:46.981Z,9.86
2023-03-17T16:02:20.553Z,9.78
2023-03-17T16:04:47.143Z,9.68
2023-03-17T16:07:13.547Z,9.55
2023-03-17T16:09:39.848Z,9.44
2023-03-17T16:12:09.772Z,9.32
2023-03-17T16:14:36.027Z,9.17
2023-03-17T16:17:02.518Z,9.03
2023-03-17T16:19:28.875Z,8.85
2023-03-17T16:21:55.278Z,8.68
2023-03-17T16:24:22.669Z,8.53
2023-03-17T16:26:49.074Z,8.36
2023-03-17T16:29:16.517Z,8.21
2023-03-17T16:31:44.146Z,8.06
2023-03-17T16:34:18.146Z,7.92
2023-03-17T16:36:46.789Z,7.78
2023-03-17T16:39:22.902Z,7.63
2023-03-17T16:41:49.621Z,7.49
2023-03-17T16:44:17.728Z,7.35
2023-03-17T16:46:44.123Z,7.22
2023-03-17T16:49:18.928Z,7.09
2023-03-17T16:51:45.422Z,6.97
2023-03-17T16:54:11.804Z,6.84
2023-03-17T16:56:38.991Z,6.71
2023-03-17T16:59:07.194Z,6.60
2023-03-17T17:01:33.741Z,6.49
2023-03-17T17:04:00.143Z,6.40
2023-03-17T17:06:26.552Z,6.32
2023-03-17T17:08:52.870Z,6.23
2023-03-17T17:11:19.457Z,6.16
2023-03-17T17:13:46.913Z,6.08
2023-03-17T17:16:30.197Z,6.04
2023-03-17T17:18:57.280Z,5.95
2023-03-17T17:21:23.690Z,5.88
2023-03-17T17:23:52.679Z,5.80
2023-03-17T17:26:19.998Z,5.72
2023-03-17T17:28:46.398Z,5.65
2023-03-17T17:31:13.155Z,5.60
2023-03-17T17:33:39.601Z,5.54
2023-03-17T17:36:10.697Z,5.48
2023-03-17T17:38:37.114Z,5.42
2023-03-17T17:41:03.705Z,5.37
2023-03-17T17:43:30.006Z,5.30
2023-03-17T17:45:57.274Z,5.23
2023-03-17T17:48:24.797Z,5.17
2023-03-17T17:50:51.992Z,5.11
2023-03-17T17:53:19.096Z,5.05
2023-03-17T17:55:47.094Z,5.00
2023-03-17T17:58:17.256Z,4.94
2023-03-17T18:00:43.609Z,4.89
2023-03-17T18:03:10.364Z,4.83
2023-03-17T18:05:36.832Z,4.78
2023-03-17T18:08:03.714Z,4.72
2023-03-17T18:10:30.615Z,4.68
2023-03-17T18:12:57.403Z,4.63
2023-03-17T18:15:26.121Z,4.57
2023-03-17T18:17:52.596Z,4.52
2023-03-17T18:20:20.185Z,4.47
2023-03-17T18:22:46.683Z,4.42
2023-03-17T18:25:14.449Z,4.37
2023-03-17T18:27:41.419Z,4.32
2023-03-17T18:30:09.411Z,4.28
2023-03-17T18:32:36.093Z,4.24
2023-03-17T18:35:05.636Z,4.20
2023-03-17T18:37:32.161Z,4.16
2023-03-17T18:40:13.315Z,4.12
2023-03-17T18:42:41.744Z,4.08
2023-03-17T18:45:09.801Z,4.04
2023-03-17T18:47:36.532Z,3.99
2023-03-17T18:50:03.275Z,3.95
2023-03-17T18:52:30.634Z,3.90
2023-03-17T18:54:56.992Z,3.86
2023-03-17T18:57:23.307Z,3.82
2023-03-17T18:59:49.681Z,3.79
2023-03-17T19:02:15.957Z,3.74
2023-03-17T19:04:42.543Z,3.71
2023-03-17T19:07:08.878Z,3.67
2023-03-17T19:09:35.225Z,3.64
2023-03-17T19:12:01.588Z,3.60
2023-03-17T19:14:28.820Z,3.58
2023-03-17T19:16:55.490Z,3.55
2023-03-17T19:19:22.170Z,3.51
2023-03-17T19:21:48.771Z,3.49
2023-03-17T19:24:15.195Z,3.46
2023-03-17T19:26:42.731Z,3.43
2023-03-17T19:29:09.498Z,3.39
2023-03-17T19:31:36.530Z,3.36
2023-03-17T19:34:03.830Z,3.32
2023-03-17T19:36:34.350Z,3.30
2023-03-17T19:39:01.563Z,3.26
2023-03-17T19:41:30.409Z,3.24
2023-03-17T19:43:56.851Z,3.22
2023-03-17T19:46:23.255Z,3.20
2023-03-17T19:48:50.187Z,3.19
2023-03-17T19:51:16.692Z,3.17
2023-03-17T19:53:43.223Z,3.15
2023-03-17T19:56:10.032Z,3.14
2023-03-17T19:58:36.821Z,3.12
2023-03-17T20:01:04.186Z,3.11
2023-03-17T20:03:30.646Z,3.10
2023-03-17T20:05:56.982Z,3.09
2023-03-17T20:08:23.486Z,3.06
2023-03-17T20:10:51.563Z,3.04
2023-03-17T20:13:17.980Z,3.01
2023-03-17T20:15:44.431Z,2.99
2023-03-17T20:18:11.003Z,2.97
2023-03-17T20:20:37.412Z,2.96
2023-03-17T20:23:04.228Z,2.94
2023-03-17T20:25:34.178Z,2.92
2023-03-17T20:28:00.619Z,2.90
2023-03-17T20:30:26.996Z,2.89
2023-03-17T20:32:53.915Z,2.86
2023-03-17T20:35:20.794Z,2.83
2023-03-17T20:37:48.312Z,2.80
2023-03-17T20:40:14.660Z,2.77
2023-03-17T20:42:41.140Z,2.75
2023-03-17T20:45:08.059Z,2.72
2023-03-17T20:47:34.420Z,2.70
2023-03-17T20:50:00.865Z,2.67
2023-03-17T20:52:29.530Z,2.65
2023-03-17T20:54:57.034Z,2.62
2023-03-17T20:57:23.435Z,2.59
2023-03-17T20:59:49.892Z,2.58
2023-03-17T21:02:16.743Z,2.56
2023-03-17T21:04:44.682Z,2.54
2023-03-17T21:07:11.221Z,2.52
2023-03-17T21:09:37.851Z,2.50
2023-03-17T21:12:05.394Z,2.48
2023-03-17T21:14:31.667Z,2.45
2023-03-17T21:16:58.311Z,2.42
2023-03-17T21:19:25.195Z,2.39
2023-03-17T21:21:51.563Z,2.35
2023-03-17T21:24:29.575Z,2.31
2023-03-17T21:26:56.553Z,2.27
2023-03-17T21:29:23.016Z,2.23
2023-03-17T21:31:49.562Z,2.19
2023-03-17T21:34:16.212Z,2.16
2023-03-17T21:36:42.729Z,2.14
2023-03-17T21:39:09.669Z,2.11
2023-03-17T21:41:36.560Z,2.08
2023-03-17T21:44:04.348Z,2.04
2023-03-17T21:46:31.763Z,2.01
2023-03-17T21:48:58.677Z,1.99
2023-03-17T21:51:25.224Z,1.97
2023-03-17T21:53:51.811Z,1.96
2023-03-17T21:56:19.064Z,1.93
2023-03-17T21:58:45.851Z,1.91
2023-03-17T22:01:12.379Z,1.90
2023-03-17T22:03:38.701Z,1.88
2023-03-17T22:06:05.316Z,1.85
2023-03-17T22:08:31.892Z,1.82
2023-03-17T22:10:58.188Z,1.79
2023-03-17T22:13:24.643Z,1.76
2023-03-17T22:15:51.059Z,1.73
2023-03-17T22:18:17.487Z,1.70
2023-03-17T22:20:43.827Z,1.66
2023-03-17T22:23:10.142Z,1.62
2023-03-17T22:25:36.674Z,1.59
2023-03-17T22:28:02.965Z,1.55
2023-03-17T22:30:29.420Z,1.50
2023-03-17T22:32:55.907Z,1.46
2023-03-17T22:35:22.999Z,1.42
2023-03-17T22:37:49.535Z,1.38
2023-03-17T22:40:17.088Z,1.35
2023-03-17T22:42:43.327Z,1.32
2023-03-17T22:45:12.681Z,1.30
2023-03-17T22:47:39.508Z,1.26
2023-03-17T22:50:06.017Z,1.24
2023-03-17T22:52:32.376Z,1.20
2023-03-17T22:54:58.776Z,1.18
2023-03-17T22:57:25.102Z,1.17
2023-03-17T22:59:51.476Z,1.17
2023-03-17T23:02:18.610Z,1.18
2023-03-17T23:04:45.117Z,1.17
2023-03-17T23:07:11.443Z,1.18
2023-03-17T23:09:37.744Z,1.17
2023-03-17T23:12:04.213Z,1.17
2023-03-17T23:14:30.577Z,1.17
2023-03-17T23:16:57.437Z,1.17
2023-03-17T23:19:23.781Z,1.17
2023-03-17T23:21:50.222Z,1.16
2023-03-17T23:24:16.673Z,1.14
2023-03-17T23:26:43.033Z,1.12
2023-03-17T23:29:09.381Z,1.11
2023-03-17T23:31:36.101Z,1.09
2023-03-17T23:34:03.007Z,1.07
2023-03-17T23:36:29.424Z,1.04
2023-03-17T23:38:55.896Z,1.02
2023-03-17T23:41:22.210Z,1.00
2023-03-17T23:43:49.358Z,0.97
2023-03-17T23:46:16.175Z,0.96
2023-03-17T23:48:43.006Z,0.94
2023-03-17T23:51:10.193Z,0.93
2023-03-17T23:53:36.587Z,0.93
2023-03-17T23:56:02.952Z,0.93
2023-03-17T23:58:29.251Z,0.94
